Corvo — CSBH — position and weather

sailwx.info

Track history (hours):
 
Tides and Currents Weather Stations Pressure Air Temp Water Temp Dewpoint Dewpoint Depression Visibility Wind Speed Wind Dir Waves Ship Positions

Corvo

Last reported at 2017-Sep-25 13:43 UTC. Time now 2017-Sep-25 15:26 UTC.
Position N 38°41' W 009°11'.

Length 119 m; draft 6.8 m.

Type: Cargo ship. MMSI: 204709000.

Date/timePositionNaut miles runAvg speedWind from/ knotsBaromVisibWave heightAir tempDewpointWater temp
2017-Sep-25 13:43N 38°41' W 009°11'0 0.0
2017-Sep-25 12:35N 38°41' W 009°11'0 0.0
2017-Sep-25 12:17N 38°41' W 009°11'0 0.0
2017-Sep-25 09:13N 38°41' W 009°11'0 0.0
2017-Sep-25 07:50N 38°41' W 009°11'0 0.0
2017-Sep-25 07:26N 38°41' W 009°11'0 0.0
2017-Sep-25 06:21N 38°41' W 009°11'0 0.0
2017-Sep-25 05:58N 38°41' W 009°11'1 1.2
2017-Sep-25 05:29N 38°41' W 009°12'4 7.2
2017-Sep-25 05:00N 38°41' W 009°16'815.4
2017-Sep-25 04:30N 38°36' W 009°24'815.0
2017-Sep-25 04:00N 38°29' W 009°24'815.3
2017-Sep-25 03:30N 38°21' W 009°20'815.1
2017-Sep-25 03:00N 38°15' W 009°16'714.6
2017-Sep-25 02:30N 38°07' W 009°13'5 8.6
2017-Sep-25 01:57N 38°04' W 009°18'816.3
2017-Sep-25 01:27N 38°12' W 009°22'716.4
2017-Sep-25 01:00N 38°18' W 009°26'816.1
2017-Sep-25 00:30N 38°25' W 009°31'815.2
2017-Sep-25 00:00N 38°27' W 009°40'815.7
2017-Sep-24 23:30N 38°27' W 009°50'815.8
2017-Sep-24 23:00N 38°25' W 010°00'815.7
2017-Sep-24 22:30N 38°24' W 010°10'  
2017-Sep-22 02:01N 38°10' W 026°59'816.6
2017-Sep-22 01:30N 38°14' W 027°08'816.6
2017-Sep-22 01:00N 38°18' W 027°18'816.5
2017-Sep-22 00:31N 38°21' W 027°27'816.2
2017-Sep-22 00:00N 38°25' W 027°37'816.8
2017-Sep-21 23:30N 38°28' W 027°46'816.5
2017-Sep-21 23:00N 38°32' W 027°56'815.9
2017-Sep-21 22:30N 38°35' W 028°05'714.3
2017-Sep-21 22:00N 38°40' W 028°12'1 2.0
2017-Sep-21 21:28N 38°41' W 028°12'0 0.0
2017-Sep-21 20:59N 38°41' W 028°12'0 0.0
2017-Sep-21 20:29N 38°41' W 028°12'0 0.0
2017-Sep-21 19:59N 38°41' W 028°12'0 0.0
2017-Sep-21 19:30N 38°41' W 028°12'0 0.0
2017-Sep-21 19:00N 38°41' W 028°12'0 0.0
2017-Sep-21 18:30N 38°41' W 028°12'0 0.0
2017-Sep-21 17:57N 38°41' W 028°12'0 0.0
2017-Sep-21 17:28N 38°41' W 028°12'0 0.0
2017-Sep-21 16:58N 38°41' W 028°12'0 0.0
2017-Sep-21 16:29N 38°41' W 028°12'0 0.0
2017-Sep-21 15:59N 38°41' W 028°12'0 0.0
2017-Sep-21 15:29N 38°41' W 028°12'0 0.0
2017-Sep-21 15:00N 38°41' W 028°12'0 0.0
2017-Sep-21 14:30N 38°41' W 028°12'0 0.0
2017-Sep-21 14:00N 38°41' W 028°12'0 0.0
2017-Sep-21 13:31N 38°41' W 028°12'0 0.0
2017-Sep-21 12:58N 38°41' W 028°12'0 0.0
2017-Sep-21 12:28N 38°41' W 028°12'0 0.0
2017-Sep-21 11:59N 38°41' W 028°12'0 0.0
2017-Sep-21 11:29N 38°41' W 028°12'0 0.0
2017-Sep-21 10:59N 38°41' W 028°12'1 1.4
2017-Sep-21 10:30N 38°40' W 028°13'611.7
2017-Sep-21 10:00N 38°38' W 028°20'1 1.9
2017-Sep-21 09:30N 38°38' W 028°21'0 0.1
2017-Sep-21 09:00N 38°38' W 028°21'0 0.1
2017-Sep-21 08:30N 38°38' W 028°21'0 0.1
2017-Sep-21 08:01N 38°38' W 028°21'0 0.2
2017-Sep-21 07:28N 38°38' W 028°21'0 0.1
2017-Sep-21 06:58N 38°38' W 028°21'0 0.2
2017-Sep-21 06:29N 38°38' W 028°21'0 0.7
2017-Sep-21 06:00N 38°38' W 028°20'2 4.4
2017-Sep-21 05:30N 38°37' W 028°18'816.0
2017-Sep-21 05:00N 38°34' W 028°09'713.4
2017-Sep-21 04:30N 38°32' W 028°00'712.9
2017-Sep-21 04:00N 38°30' W 027°52'612.8
2017-Sep-21 03:30N 38°30' W 027°44'713.4
2017-Sep-21 03:00N 38°31' W 027°36'714.1
2017-Sep-21 02:30N 38°32' W 027°27'913.4
2017-Sep-21 01:49N 38°33' W 027°15'413.3
2017-Sep-21 01:30N 38°34' W 027°10'612.0
2017-Sep-21 00:59N 38°37' W 027°03'6 0.4
2017-Sep-20 07:32N 38°43' W 027°03'0 0.1
2017-Sep-20 07:29N 38°43' W 027°03'1 3.1
2017-Sep-20 07:00N 38°43' W 027°01'612.1
2017-Sep-20 06:30N 38°39' W 026°55'4 8.3
2017-Sep-20 06:00N 38°35' W 026°53'510.2
2017-Sep-20 05:30N 38°33' W 026°47'4 7.4
2017-Sep-20 05:01N 38°30' W 026°45'713.6
2017-Sep-20 04:30N 38°25' W 026°39'713.5
2017-Sep-20 04:00N 38°20' W 026°33'714.0
2017-Sep-20 03:31N 38°15' W 026°26'713.7
2017-Sep-20 03:00N 38°10' W 026°21'714.1
2017-Sep-20 02:30N 38°05' W 026°15'713.8
2017-Sep-20 02:01N 37°60' W 026°08'714.2
2017-Sep-20 01:31N 37°55' W 026°02'714.1
2017-Sep-20 01:01N 37°50' W 025°55'714.7
2017-Sep-20 00:31N 37°45' W 025°48'713.9
2017-Sep-20 00:01N 37°42' W 025°40'2 4.4
2017-Sep-19 23:30N 37°44' W 025°40'0 0.0
2017-Sep-19 23:00N 37°44' W 025°40'0 0.0
2017-Sep-19 22:30N 37°44' W 025°40'0 0.0
2017-Sep-19 21:58N 37°44' W 025°40'0 0.0
2017-Sep-19 21:28N 37°44' W 025°40'0 0.0
2017-Sep-19 20:58N 37°44' W 025°40'0 0.0
2017-Sep-19 20:29N 37°44' W 025°40'0 0.0
2017-Sep-19 19:59N 37°44' W 025°40'0 0.0
2017-Sep-19 19:29N 37°44' W 025°40'0 0.0
2017-Sep-19 19:00N 37°44' W 025°40'0 0.0
2017-Sep-19 18:30N 37°44' W 025°40'0 0.0
2017-Sep-19 18:00N 37°44' W 025°40'0 0.0
2017-Sep-19 17:28N 37°44' W 025°40'0 0.0
2017-Sep-19 16:58N 37°44' W 025°40'0 0.0
2017-Sep-19 16:29N 37°44' W 025°40'0 0.0
2017-Sep-19 15:59N 37°44' W 025°40'0 0.0
2017-Sep-19 15:29N 37°44' W 025°40'0 0.0
2017-Sep-19 14:59N 37°44' W 025°40'0 0.0
2017-Sep-19 14:30N 37°44' W 025°40'0 0.0
2017-Sep-19 14:00N 37°44' W 025°40'0 0.0
2017-Sep-19 13:30N 37°44' W 025°40'0 0.0
2017-Sep-19 12:58N 37°44' W 025°40'0 0.0
2017-Sep-19 12:28N 37°44' W 025°40'0 0.0
2017-Sep-19 11:59N 37°44' W 025°40'0 0.0
2017-Sep-19 11:29N 37°44' W 025°40'0 0.0
2017-Sep-19 10:59N 37°44' W 025°40'0 0.0
2017-Sep-19 10:30N 37°44' W 025°40'0 0.0
2017-Sep-19 10:00N 37°44' W 025°40'0 0.0
2017-Sep-19 09:30N 37°44' W 025°40'0 0.0
2017-Sep-19 09:00N 37°44' W 025°40'0 0.0
2017-Sep-19 08:28N 37°44' W 025°40'0 0.0
2017-Sep-19 07:58N 37°44' W 025°40'0 0.0
2017-Sep-19 07:28N 37°44' W 025°40'0 0.0
2017-Sep-19 06:59N 37°44' W 025°40'0 0.0
2017-Sep-19 06:29N 37°44' W 025°40'0 0.0
2017-Sep-19 05:59N 37°44' W 025°40'0 0.0
2017-Sep-19 05:30N 37°44' W 025°40'0 0.0
2017-Sep-19 05:00N 37°44' W 025°40'0 0.0
2017-Sep-19 04:30N 37°44' W 025°40'0 0.0
2017-Sep-19 03:58N 37°44' W 025°40'0 0.0
2017-Sep-19 03:28N 37°44' W 025°40'0 0.0
2017-Sep-19 02:59N 37°44' W 025°40'0 0.0
2017-Sep-19 02:29N 37°44' W 025°40'0 0.0
2017-Sep-19 01:59N 37°44' W 025°40'0 0.0
2017-Sep-19 01:30N 37°44' W 025°40'0 0.0
2017-Sep-19 01:00N 37°44' W 025°40'0 0.0
2017-Sep-19 00:30N 37°44' W 025°40'0 0.0
2017-Sep-19 00:00N 37°44' W 025°40'0 0.0
2017-Sep-18 23:28N 37°44' W 025°40'0 0.0
2017-Sep-18 22:58N 37°44' W 025°40'0 0.0
2017-Sep-18 22:29N 37°44' W 025°40'0 0.0
2017-Sep-18 21:59N 37°44' W 025°40'0 0.0
2017-Sep-18 21:29N 37°44' W 025°40'0 0.0
2017-Sep-18 21:00N 37°44' W 025°40'0 0.0
2017-Sep-18 20:30N 37°44' W 025°40'0 0.0
2017-Sep-18 20:00N 37°44' W 025°40'0 0.0
2017-Sep-18 19:30N 37°44' W 025°40'0 0.0
2017-Sep-18 18:58N 37°44' W 025°40'0 0.0
2017-Sep-18 18:28N 37°44' W 025°40'0 0.0
2017-Sep-18 17:59N 37°44' W 025°40'0 0.0
2017-Sep-18 17:29N 37°44' W 025°40'0 0.0
2017-Sep-18 16:59N 37°44' W 025°40'0 0.0
2017-Sep-18 16:30N 37°44' W 025°40'0 0.0
2017-Sep-18 16:00N 37°44' W 025°40'0 0.0
2017-Sep-18 15:30N 37°44' W 025°40'0 0.0
2017-Sep-18 14:58N 37°44' W 025°40'0 0.0
2017-Sep-18 14:28N 37°44' W 025°40'0 0.0
2017-Sep-18 13:58N 37°44' W 025°40'0 0.0
2017-Sep-18 13:29N 37°44' W 025°40'0 0.0
2017-Sep-18 12:59N 37°44' W 025°40'0 0.0
2017-Sep-18 12:29N 37°44' W 025°40'0 0.0
2017-Sep-18 12:00N 37°44' W 025°40'0 0.0
2017-Sep-18 11:30N 37°44' W 025°40'0 0.0
2017-Sep-18 11:00N 37°44' W 025°40'0 0.0
2017-Sep-18 10:31N 37°44' W 025°40'0 0.0
2017-Sep-18 09:58N 37°44' W 025°40'0 0.0
2017-Sep-18 09:31N 37°44' W 025°40'1 1.5
2017-Sep-18 09:00N 37°44' W 025°39'2 4.2
2017-Sep-18 08:30N 37°43' W 025°37'612.8
2017-Sep-18 08:01N 37°40' W 025°30'714.0
2017-Sep-18 07:31N 37°40' W 025°21'713.9
2017-Sep-18 07:00N 37°41' W 025°12'714.2
2017-Sep-18 06:30N 37°41' W 025°03'714.0
2017-Sep-18 06:01N 37°42' W 024°54'713.9
2017-Sep-18 05:30N 37°42' W 024°45'714.1
2017-Sep-18 05:00N 37°43' W 024°37'714.1
2017-Sep-18 04:30N 37°43' W 024°28'713.8
2017-Sep-18 04:00N 37°44' W 024°19'713.9
2017-Sep-18 03:30N 37°44' W 024°10'714.1
2017-Sep-18 03:00N 37°45' W 024°01'714.0
2017-Sep-18 02:30N 37°46' W 023°52'713.7
2017-Sep-18 01:59N 37°46' W 023°43'714.0
2017-Sep-18 01:30N 37°47' W 023°35'63314.0
2017-Sep-16 04:16N 38°32' W 010°12'313.1
2017-Sep-16 04:00N 38°32' W 010°07'613.0
2017-Sep-16 03:30N 38°32' W 009°59'713.0
2017-Sep-16 03:00N 38°33' W 009°51'713.7
2017-Sep-16 02:30N 38°34' W 009°42'713.4
2017-Sep-16 02:01N 38°35' W 009°34'713.5
2017-Sep-16 01:30N 38°36' W 009°25'713.9
2017-Sep-16 00:58N 38°41' W 009°18'711.5
2017-Sep-16 00:24N 38°42' W 009°09'3 0.3
2017-Sep-15 15:21N 38°43' W 009°06'0 0.0
2017-Sep-15 14:46N 38°43' W 009°06'0 0.0
2017-Sep-15 14:16N 38°43' W 009°06'0 0.0
2017-Sep-15 13:58N 38°43' W 009°06'  
Track history (hours):
 
Tides and Currents Weather Stations Pressure Air Temp Water Temp Dewpoint Dewpoint Depression Visibility Wind Speed Wind Dir Waves Ship Positions

Corvo

Last reported at 2017-Sep-25 13:43 UTC. Time now 2017-Sep-25 15:26 UTC.
Position N 38°41' W 009°11'.

Length 119 m; draft 6.8 m.

Type: Cargo ship. MMSI: 204709000.

Date/timePositionNaut miles runAvg speedWind from/ knotsBaromVisibWave heightAir tempDewpointWater temp
2017-Sep-25 13:43N 38°41' W 009°11'0 0.0
2017-Sep-25 12:35N 38°41' W 009°11'0 0.0
2017-Sep-25 12:17N 38°41' W 009°11'0 0.0
2017-Sep-25 09:13N 38°41' W 009°11'0 0.0
2017-Sep-25 07:50N 38°41' W 009°11'0 0.0
2017-Sep-25 07:26N 38°41' W 009°11'0 0.0
2017-Sep-25 06:21N 38°41' W 009°11'0 0.0
2017-Sep-25 05:58N 38°41' W 009°11'1 1.2
2017-Sep-25 05:29N 38°41' W 009°12'4 7.2
2017-Sep-25 05:00N 38°41' W 009°16'815.4
2017-Sep-25 04:30N 38°36' W 009°24'815.0
2017-Sep-25 04:00N 38°29' W 009°24'815.3
2017-Sep-25 03:30N 38°21' W 009°20'815.1
2017-Sep-25 03:00N 38°15' W 009°16'714.6
2017-Sep-25 02:30N 38°07' W 009°13'5 8.6
2017-Sep-25 01:57N 38°04' W 009°18'816.3
2017-Sep-25 01:27N 38°12' W 009°22'716.4
2017-Sep-25 01:00N 38°18' W 009°26'816.1
2017-Sep-25 00:30N 38°25' W 009°31'815.2
2017-Sep-25 00:00N 38°27' W 009°40'815.7
2017-Sep-24 23:30N 38°27' W 009°50'815.8
2017-Sep-24 23:00N 38°25' W 010°00'815.7
2017-Sep-24 22:30N 38°24' W 010°10'  
2017-Sep-22 02:01N 38°10' W 026°59'816.6
2017-Sep-22 01:30N 38°14' W 027°08'816.6
2017-Sep-22 01:00N 38°18' W 027°18'816.5
2017-Sep-22 00:31N 38°21' W 027°27'816.2
2017-Sep-22 00:00N 38°25' W 027°37'816.8
2017-Sep-21 23:30N 38°28' W 027°46'816.5
2017-Sep-21 23:00N 38°32' W 027°56'815.9
2017-Sep-21 22:30N 38°35' W 028°05'714.3
2017-Sep-21 22:00N 38°40' W 028°12'1 2.0
2017-Sep-21 21:28N 38°41' W 028°12'0 0.0
2017-Sep-21 20:59N 38°41' W 028°12'0 0.0
2017-Sep-21 20:29N 38°41' W 028°12'0 0.0
2017-Sep-21 19:59N 38°41' W 028°12'0 0.0
2017-Sep-21 19:30N 38°41' W 028°12'0 0.0
2017-Sep-21 19:00N 38°41' W 028°12'0 0.0
2017-Sep-21 18:30N 38°41' W 028°12'0 0.0
2017-Sep-21 17:57N 38°41' W 028°12'0 0.0
2017-Sep-21 17:28N 38°41' W 028°12'0 0.0
2017-Sep-21 16:58N 38°41' W 028°12'0 0.0
2017-Sep-21 16:29N 38°41' W 028°12'0 0.0
2017-Sep-21 15:59N 38°41' W 028°12'0 0.0
2017-Sep-21 15:29N 38°41' W 028°12'0 0.0
2017-Sep-21 15:00N 38°41' W 028°12'0 0.0
2017-Sep-21 14:30N 38°41' W 028°12'0 0.0
2017-Sep-21 14:00N 38°41' W 028°12'0 0.0
2017-Sep-21 13:31N 38°41' W 028°12'0 0.0
2017-Sep-21 12:58N 38°41' W 028°12'0 0.0
2017-Sep-21 12:28N 38°41' W 028°12'0 0.0
2017-Sep-21 11:59N 38°41' W 028°12'0 0.0
2017-Sep-21 11:29N 38°41' W 028°12'0 0.0
2017-Sep-21 10:59N 38°41' W 028°12'1 1.4
2017-Sep-21 10:30N 38°40' W 028°13'611.7
2017-Sep-21 10:00N 38°38' W 028°20'1 1.9
2017-Sep-21 09:30N 38°38' W 028°21'0 0.1
2017-Sep-21 09:00N 38°38' W 028°21'0 0.1
2017-Sep-21 08:30N 38°38' W 028°21'0 0.1
2017-Sep-21 08:01N 38°38' W 028°21'0 0.2
2017-Sep-21 07:28N 38°38' W 028°21'0 0.1
2017-Sep-21 06:58N 38°38' W 028°21'0 0.2
2017-Sep-21 06:29N 38°38' W 028°21'0 0.7
2017-Sep-21 06:00N 38°38' W 028°20'2 4.4
2017-Sep-21 05:30N 38°37' W 028°18'816.0
2017-Sep-21 05:00N 38°34' W 028°09'713.4
2017-Sep-21 04:30N 38°32' W 028°00'712.9
2017-Sep-21 04:00N 38°30' W 027°52'612.8
2017-Sep-21 03:30N 38°30' W 027°44'713.4
2017-Sep-21 03:00N 38°31' W 027°36'714.1
2017-Sep-21 02:30N 38°32' W 027°27'913.4
2017-Sep-21 01:49N 38°33' W 027°15'413.3
2017-Sep-21 01:30N 38°34' W 027°10'612.0
2017-Sep-21 00:59N 38°37' W 027°03'6 0.4
2017-Sep-20 07:32N 38°43' W 027°03'0 0.1
2017-Sep-20 07:29N 38°43' W 027°03'1 3.1
2017-Sep-20 07:00N 38°43' W 027°01'612.1
2017-Sep-20 06:30N 38°39' W 026°55'4 8.3
2017-Sep-20 06:00N 38°35' W 026°53'510.2
2017-Sep-20 05:30N 38°33' W 026°47'4 7.4
2017-Sep-20 05:01N 38°30' W 026°45'713.6
2017-Sep-20 04:30N 38°25' W 026°39'713.5
2017-Sep-20 04:00N 38°20' W 026°33'714.0
2017-Sep-20 03:31N 38°15' W 026°26'713.7
2017-Sep-20 03:00N 38°10' W 026°21'714.1
2017-Sep-20 02:30N 38°05' W 026°15'713.8
2017-Sep-20 02:01N 37°60' W 026°08'714.2
2017-Sep-20 01:31N 37°55' W 026°02'714.1
2017-Sep-20 01:01N 37°50' W 025°55'714.7
2017-Sep-20 00:31N 37°45' W 025°48'713.9
2017-Sep-20 00:01N 37°42' W 025°40'2 4.4
2017-Sep-19 23:30N 37°44' W 025°40'0 0.0
2017-Sep-19 23:00N 37°44' W 025°40'0 0.0
2017-Sep-19 22:30N 37°44' W 025°40'0 0.0
2017-Sep-19 21:58N 37°44' W 025°40'0 0.0
2017-Sep-19 21:28N 37°44' W 025°40'0 0.0
2017-Sep-19 20:58N 37°44' W 025°40'0 0.0
2017-Sep-19 20:29N 37°44' W 025°40'0 0.0
2017-Sep-19 19:59N 37°44' W 025°40'0 0.0
2017-Sep-19 19:29N 37°44' W 025°40'0 0.0
2017-Sep-19 19:00N 37°44' W 025°40'0 0.0
2017-Sep-19 18:30N 37°44' W 025°40'0 0.0
2017-Sep-19 18:00N 37°44' W 025°40'0 0.0
2017-Sep-19 17:28N 37°44' W 025°40'0 0.0
2017-Sep-19 16:58N 37°44' W 025°40'0 0.0
2017-Sep-19 16:29N 37°44' W 025°40'0 0.0
2017-Sep-19 15:59N 37°44' W 025°40'0 0.0
2017-Sep-19 15:29N 37°44' W 025°40'0 0.0
2017-Sep-19 14:59N 37°44' W 025°40'0 0.0
2017-Sep-19 14:30N 37°44' W 025°40'0 0.0
2017-Sep-19 14:00N 37°44' W 025°40'0 0.0
2017-Sep-19 13:30N 37°44' W 025°40'0 0.0
2017-Sep-19 12:58N 37°44' W 025°40'0 0.0
2017-Sep-19 12:28N 37°44' W 025°40'0 0.0
2017-Sep-19 11:59N 37°44' W 025°40'0 0.0
2017-Sep-19 11:29N 37°44' W 025°40'0 0.0
2017-Sep-19 10:59N 37°44' W 025°40'0 0.0
2017-Sep-19 10:30N 37°44' W 025°40'0 0.0
2017-Sep-19 10:00N 37°44' W 025°40'0 0.0
2017-Sep-19 09:30N 37°44' W 025°40'0 0.0
2017-Sep-19 09:00N 37°44' W 025°40'0 0.0
2017-Sep-19 08:28N 37°44' W 025°40'0 0.0
2017-Sep-19 07:58N 37°44' W 025°40'0 0.0
2017-Sep-19 07:28N 37°44' W 025°40'0 0.0
2017-Sep-19 06:59N 37°44' W 025°40'0 0.0
2017-Sep-19 06:29N 37°44' W 025°40'0 0.0
2017-Sep-19 05:59N 37°44' W 025°40'0 0.0
2017-Sep-19 05:30N 37°44' W 025°40'0 0.0
2017-Sep-19 05:00N 37°44' W 025°40'0 0.0
2017-Sep-19 04:30N 37°44' W 025°40'0 0.0
2017-Sep-19 03:58N 37°44' W 025°40'0 0.0
2017-Sep-19 03:28N 37°44' W 025°40'0 0.0
2017-Sep-19 02:59N 37°44' W 025°40'0 0.0
2017-Sep-19 02:29N 37°44' W 025°40'0 0.0
2017-Sep-19 01:59N 37°44' W 025°40'0 0.0
2017-Sep-19 01:30N 37°44' W 025°40'0 0.0
2017-Sep-19 01:00N 37°44' W 025°40'0 0.0
2017-Sep-19 00:30N 37°44' W 025°40'0 0.0
2017-Sep-19 00:00N 37°44' W 025°40'0 0.0
2017-Sep-18 23:28N 37°44' W 025°40'0 0.0
2017-Sep-18 22:58N 37°44' W 025°40'0 0.0
2017-Sep-18 22:29N 37°44' W 025°40'0 0.0
2017-Sep-18 21:59N 37°44' W 025°40'0 0.0
2017-Sep-18 21:29N 37°44' W 025°40'0 0.0
2017-Sep-18 21:00N 37°44' W 025°40'0 0.0
2017-Sep-18 20:30N 37°44' W 025°40'0 0.0
2017-Sep-18 20:00N 37°44' W 025°40'0 0.0
2017-Sep-18 19:30N 37°44' W 025°40'0 0.0
2017-Sep-18 18:58N 37°44' W 025°40'0 0.0
2017-Sep-18 18:28N 37°44' W 025°40'0 0.0
2017-Sep-18 17:59N 37°44' W 025°40'0 0.0
2017-Sep-18 17:29N 37°44' W 025°40'0 0.0
2017-Sep-18 16:59N 37°44' W 025°40'0 0.0
2017-Sep-18 16:30N 37°44' W 025°40'0 0.0
2017-Sep-18 16:00N 37°44' W 025°40'0 0.0
2017-Sep-18 15:30N 37°44' W 025°40'0 0.0
2017-Sep-18 14:58N 37°44' W 025°40'0 0.0
2017-Sep-18 14:28N 37°44' W 025°40'0 0.0
2017-Sep-18 13:58N 37°44' W 025°40'0 0.0
2017-Sep-18 13:29N 37°44' W 025°40'0 0.0
2017-Sep-18 12:59N 37°44' W 025°40'0 0.0
2017-Sep-18 12:29N 37°44' W 025°40'0 0.0
2017-Sep-18 12:00N 37°44' W 025°40'0 0.0
2017-Sep-18 11:30N 37°44' W 025°40'0 0.0
2017-Sep-18 11:00N 37°44' W 025°40'0 0.0
2017-Sep-18 10:31N 37°44' W 025°40'0 0.0
2017-Sep-18 09:58N 37°44' W 025°40'0 0.0
2017-Sep-18 09:31N 37°44' W 025°40'1 1.5
2017-Sep-18 09:00N 37°44' W 025°39'2 4.2
2017-Sep-18 08:30N 37°43' W 025°37'612.8
2017-Sep-18 08:01N 37°40' W 025°30'714.0
2017-Sep-18 07:31N 37°40' W 025°21'713.9
2017-Sep-18 07:00N 37°41' W 025°12'714.2
2017-Sep-18 06:30N 37°41' W 025°03'714.0
2017-Sep-18 06:01N 37°42' W 024°54'713.9
2017-Sep-18 05:30N 37°42' W 024°45'714.1
2017-Sep-18 05:00N 37°43' W 024°37'714.1
2017-Sep-18 04:30N 37°43' W 024°28'713.8
2017-Sep-18 04:00N 37°44' W 024°19'713.9
2017-Sep-18 03:30N 37°44' W 024°10'714.1
2017-Sep-18 03:00N 37°45' W 024°01'714.0
2017-Sep-18 02:30N 37°46' W 023°52'713.7
2017-Sep-18 01:59N 37°46' W 023°43'714.0
2017-Sep-18 01:30N 37°47' W 023°35'63314.0
2017-Sep-16 04:16N 38°32' W 010°12'313.1
2017-Sep-16 04:00N 38°32' W 010°07'613.0
2017-Sep-16 03:30N 38°32' W 009°59'713.0
2017-Sep-16 03:00N 38°33' W 009°51'713.7
2017-Sep-16 02:30N 38°34' W 009°42'713.4
2017-Sep-16 02:01N 38°35' W 009°34'713.5
2017-Sep-16 01:30N 38°36' W 009°25'713.9
2017-Sep-16 00:58N 38°41' W 009°18'711.5
2017-Sep-16 00:24N 38°42' W 009°09'3 0.3
2017-Sep-15 15:21N 38°43' W 009°06'0 0.0
2017-Sep-15 14:46N 38°43' W 009°06'0 0.0
2017-Sep-15 14:16N 38°43' W 009°06'0 0.0
2017-Sep-15 13:58N 38°43' W 009°06'  

Dump ship's entire track history